createdAt,value
2023-03-26T00:01:34.142Z,76.45
2023-03-26T00:04:03.798Z,76.39
2023-03-26T00:06:34.445Z,76.56
2023-03-26T00:09:02.268Z,76.56
2023-03-26T00:11:30.183Z,76.56
2023-03-26T00:13:58.201Z,76.58
2023-03-26T00:16:30.172Z,76.56
2023-03-26T00:18:59.044Z,76.63
2023-03-26T00:21:28.691Z,76.72
2023-03-26T00:23:58.605Z,76.52
2023-03-26T00:26:29.882Z,76.72
2023-03-26T00:28:58.262Z,76.64
2023-03-26T00:31:26.290Z,76.72
2023-03-26T00:33:54.618Z,76.52
2023-03-26T00:36:24.659Z,76.70
2023-03-26T00:38:52.523Z,76.80
2023-03-26T00:41:21.976Z,77.44
2023-03-26T00:43:51.752Z,78.69
2023-03-26T00:46:19.634Z,79.93
2023-03-26T00:48:47.629Z,80.52
2023-03-26T00:51:19.537Z,81.19
2023-03-26T00:53:49.374Z,81.73
2023-03-26T00:56:18.611Z,82.17
2023-03-26T00:58:46.602Z,82.60
2023-03-26T01:01:17.206Z,83.09
2023-03-26T01:03:53.619Z,83.10
2023-03-26T01:06:30.721Z,82.68
2023-03-26T01:09:04.136Z,82.53
2023-03-26T01:11:34.668Z,82.66
2023-03-26T01:14:08.280Z,82.89
2023-03-26T01:16:53.093Z,83.75
2023-03-26T01:19:25.620Z,83.52
2023-03-26T01:21:53.185Z,84.21
2023-03-26T01:24:20.915Z,84.04
2023-03-26T01:27:00.386Z,83.87
2023-03-26T01:29:33.314Z,84.13
2023-03-26T01:32:06.094Z,84.25
2023-03-26T01:34:56.198Z,83.95
2023-03-26T01:37:34.334Z,84.24
2023-03-26T01:40:08.986Z,84.56
2023-03-26T01:42:43.576Z,84.76
2023-03-26T01:45:17.781Z,84.73
2023-03-26T01:47:46.655Z,84.73
2023-03-26T01:50:14.410Z,84.86
2023-03-26T01:52:42.066Z,85.05
2023-03-26T01:55:10.735Z,85.27
2023-03-26T01:57:44.332Z,85.22
2023-03-26T02:00:28.415Z,85.33
2023-03-26T02:03:18.345Z,85.44
2023-03-26T02:05:55.090Z,85.64
2023-03-26T02:08:28.573Z,85.77
2023-03-26T02:10:59.447Z,85.56
2023-03-26T02:13:27.332Z,85.31
2023-03-26T02:16:00.741Z,85.22
2023-03-26T02:18:29.430Z,85.17
2023-03-26T02:20:57.005Z,85.12
2023-03-26T02:23:24.565Z,85.20
2023-03-26T02:25:52.428Z,85.10
2023-03-26T02:28:20.226Z,85.06
2023-03-26T02:30:47.801Z,85.05
2023-03-26T02:33:15.372Z,84.84
2023-03-26T02:35:43.066Z,84.65
2023-03-26T02:38:10.687Z,84.38
2023-03-26T02:40:38.220Z,84.38
2023-03-26T02:43:05.907Z,84.14
2023-03-26T02:45:33.500Z,83.95
2023-03-26T02:48:01.192Z,84.00
2023-03-26T02:50:29.040Z,83.85
2023-03-26T02:52:56.847Z,83.66
2023-03-26T02:55:24.415Z,83.46
2023-03-26T02:57:51.987Z,83.11
2023-03-26T03:00:19.960Z,83.01
2023-03-26T03:02:48.689Z,82.79
2023-03-26T03:05:16.802Z,82.75
2023-03-26T03:07:45.554Z,82.51
2023-03-26T03:10:14.587Z,82.60
2023-03-26T03:12:42.897Z,82.81
2023-03-26T03:15:11.003Z,82.70
2023-03-26T03:17:38.657Z,82.71
2023-03-26T03:20:07.425Z,82.78
2023-03-26T03:22:35.995Z,82.85
2023-03-26T03:25:04.929Z,82.80
2023-03-26T03:27:32.509Z,82.93
2023-03-26T03:30:00.159Z,82.90
2023-03-26T03:32:27.802Z,82.81
2023-03-26T03:34:55.601Z,82.78
2023-03-26T03:37:23.176Z,82.92
2023-03-26T03:39:50.757Z,82.96
2023-03-26T03:42:18.605Z,82.81
2023-03-26T03:44:46.157Z,83.01
2023-03-26T03:47:13.790Z,83.01
2023-03-26T03:49:41.501Z,82.91
2023-03-26T03:52:09.081Z,83.07
2023-03-26T03:54:36.705Z,83.10
2023-03-26T03:57:04.419Z,83.08
2023-03-26T03:59:31.982Z,82.98
2023-03-26T04:01:59.522Z,82.96
2023-03-26T04:04:27.184Z,82.67
2023-03-26T04:06:54.964Z,82.59
2023-03-26T04:09:22.563Z,82.76
2023-03-26T04:11:50.160Z,82.51
2023-03-26T04:14:17.742Z,82.50
2023-03-26T04:16:45.281Z,82.44
2023-03-26T04:19:12.856Z,82.31
2023-03-26T04:21:41.122Z,82.59
2023-03-26T04:24:09.502Z,82.42
2023-03-26T04:26:37.108Z,82.37
2023-03-26T04:29:06.862Z,82.47
2023-03-26T04:31:34.503Z,82.26
2023-03-26T04:34:20.921Z,82.33
2023-03-26T04:36:48.505Z,82.28
2023-03-26T04:39:16.164Z,82.04
2023-03-26T04:41:43.727Z,82.17
2023-03-26T04:44:11.294Z,82.02
2023-03-26T04:46:38.871Z,82.02
2023-03-26T04:49:06.459Z,81.48
2023-03-26T04:51:38.050Z,81.14
2023-03-26T04:54:06.018Z,80.94
2023-03-26T04:56:45.881Z,80.81
2023-03-26T04:59:17.924Z,80.28
2023-03-26T05:01:45.565Z,80.34
2023-03-26T05:04:13.756Z,80.08
2023-03-26T05:06:41.953Z,79.64
2023-03-26T05:09:09.516Z,79.58
2023-03-26T05:11:37.352Z,79.35
2023-03-26T05:14:04.919Z,79.30
2023-03-26T05:16:33.042Z,79.17
2023-03-26T05:19:00.677Z,78.87
2023-03-26T05:21:28.445Z,78.68
2023-03-26T05:23:56.085Z,78.41
2023-03-26T05:26:23.860Z,78.30
2023-03-26T05:28:52.546Z,78.10
2023-03-26T05:31:20.568Z,77.88
2023-03-26T05:33:48.966Z,77.90
2023-03-26T05:36:17.016Z,77.37
2023-03-26T05:38:44.870Z,77.22
2023-03-26T05:41:12.753Z,76.88
2023-03-26T05:43:40.366Z,76.45
2023-03-26T05:46:08.372Z,76.03
2023-03-26T05:48:35.976Z,75.79
2023-03-26T05:51:04.218Z,75.39
2023-03-26T05:53:31.989Z,74.91
2023-03-26T05:55:59.595Z,75.00
2023-03-26T05:58:29.579Z,75.04
2023-03-26T06:01:09.260Z,74.45
2023-03-26T06:03:39.531Z,74.61
2023-03-26T06:06:09.184Z,73.82
2023-03-26T06:08:36.847Z,73.27
2023-03-26T06:11:05.864Z,73.47
2023-03-26T06:13:33.627Z,72.56
2023-03-26T06:16:01.240Z,72.16
2023-03-26T06:18:28.863Z,71.95
2023-03-26T06:20:56.601Z,71.58
2023-03-26T06:23:24.475Z,70.85
2023-03-26T06:25:52.101Z,70.69
2023-03-26T06:28:19.713Z,70.73
2023-03-26T06:30:47.391Z,70.37
2023-03-26T06:33:14.999Z,70.76
2023-03-26T06:35:42.638Z,69.83
2023-03-26T06:38:10.270Z,70.16
2023-03-26T06:40:38.042Z,69.78
2023-03-26T06:43:09.477Z,69.67
2023-03-26T06:45:38.419Z,68.78
2023-03-26T06:48:06.324Z,68.81
2023-03-26T06:50:34.385Z,67.90
2023-03-26T06:53:02.067Z,67.15
2023-03-26T06:55:29.713Z,66.22
2023-03-26T06:57:57.326Z,66.00
2023-03-26T07:00:24.973Z,66.90
2023-03-26T07:02:52.881Z,66.62
2023-03-26T07:05:20.792Z,66.04
2023-03-26T07:07:50.433Z,66.69
2023-03-26T07:10:18.169Z,66.28
2023-03-26T07:12:45.745Z,66.41
2023-03-26T07:15:13.428Z,66.71
2023-03-26T07:17:41.220Z,66.58
2023-03-26T07:20:09.421Z,65.92
2023-03-26T07:22:37.447Z,65.35
2023-03-26T07:25:06.202Z,65.30
2023-03-26T07:27:57.098Z,65.38
2023-03-26T07:30:29.082Z,64.38
2023-03-26T07:33:06.415Z,64.66
2023-03-26T07:35:43.812Z,63.88
2023-03-26T07:38:14.388Z,64.79
2023-03-26T07:40:52.919Z,65.19
2023-03-26T07:43:48.980Z,65.48
2023-03-26T07:46:17.811Z,64.17
2023-03-26T07:48:46.466Z,64.19
2023-03-26T07:51:14.782Z,63.31
2023-03-26T07:53:42.577Z,63.05
2023-03-26T07:56:19.172Z,62.73
2023-03-26T07:59:08.740Z,61.56
2023-03-26T08:01:54.476Z,61.51
2023-03-26T08:04:43.838Z,60.74
2023-03-26T08:07:29.076Z,60.71
2023-03-26T08:10:30.854Z,59.88
2023-03-26T08:13:30.696Z,60.39
2023-03-26T08:16:28.348Z,59.06
2023-03-26T08:19:03.684Z,59.45
2023-03-26T08:21:54.171Z,59.75
2023-03-26T08:24:33.927Z,58.12
2023-03-26T08:27:20.731Z,59.31
2023-03-26T08:30:00.340Z,58.05
2023-03-26T08:32:28.968Z,57.33
2023-03-26T08:34:56.565Z,56.55
2023-03-26T08:37:24.260Z,54.62
2023-03-26T08:39:51.835Z,53.73
2023-03-26T08:42:29.136Z,52.80
2023-03-26T08:45:18.462Z,53.25
2023-03-26T08:48:23.245Z,52.18
2023-03-26T08:50:56.907Z,51.93
2023-03-26T08:53:57.040Z,51.70
2023-03-26T08:56:49.466Z,50.47
2023-03-26T08:59:41.559Z,50.47
2023-03-26T09:02:15.090Z,51.01
2023-03-26T09:05:10.117Z,50.88
2023-03-26T09:08:25.434Z,50.91
2023-03-26T09:11:24.997Z,50.62
2023-03-26T09:14:11.075Z,50.01
2023-03-26T09:16:56.643Z,50.84
2023-03-26T09:19:46.162Z,50.23
2023-03-26T09:22:41.676Z,50.01
2023-03-26T09:25:30.614Z,50.17
2023-03-26T09:28:35.771Z,49.62
2023-03-26T09:31:09.158Z,49.83
2023-03-26T09:33:55.052Z,48.84
2023-03-26T09:36:32.272Z,49.12
2023-03-26T09:39:10.202Z,48.56
2023-03-26T09:41:43.404Z,48.98
2023-03-26T09:44:19.838Z,47.62
2023-03-26T09:46:47.380Z,47.82
2023-03-26T09:49:26.465Z,48.73
2023-03-26T09:52:01.801Z,48.11
2023-03-26T09:54:58.502Z,48.01
2023-03-26T09:57:54.195Z,47.53
2023-03-26T10:00:43.580Z,46.62
2023-03-26T10:03:11.197Z,46.57
2023-03-26T10:05:50.861Z,46.99
2023-03-26T10:08:37.005Z,47.11
2023-03-26T10:11:32.916Z,48.21
2023-03-26T10:14:11.093Z,49.53
2023-03-26T10:16:50.936Z,50.02
2023-03-26T10:19:39.405Z,59.95
2023-03-26T10:22:28.875Z,65.93
2023-03-26T10:25:15.242Z,70.97
2023-03-26T10:28:09.379Z,72.57
2023-03-26T10:30:44.866Z,72.87
2023-03-26T10:33:37.588Z,73.51
2023-03-26T10:36:31.691Z,74.05
2023-03-26T10:38:59.243Z,74.34
2023-03-26T10:41:51.727Z,74.35
2023-03-26T10:44:57.930Z,74.47
2023-03-26T10:47:25.494Z,73.35
2023-03-26T10:50:35.008Z,72.40
2023-03-26T10:53:27.186Z,71.22
2023-03-26T10:56:02.838Z,69.10
2023-03-26T10:58:49.646Z,67.34
2023-03-26T11:01:36.889Z,65.29
2023-03-26T11:04:33.614Z,64.17
2023-03-26T11:07:17.728Z,60.05
2023-03-26T11:09:51.319Z,58.71
2023-03-26T11:12:30.953Z,55.77
2023-03-26T11:15:01.296Z,49.88
2023-03-26T11:17:40.259Z,49.99
2023-03-26T11:20:32.025Z,51.49
2023-03-26T11:23:02.284Z,54.00
2023-03-26T11:25:29.826Z,54.98
2023-03-26T11:28:08.939Z,55.35
2023-03-26T11:30:42.365Z,55.71
2023-03-26T11:33:15.143Z,56.22
2023-03-26T11:35:51.378Z,52.97
2023-03-26T11:38:24.693Z,51.20
2023-03-26T11:40:55.800Z,46.53
2023-03-26T11:43:34.367Z,46.13
2023-03-26T11:46:04.401Z,45.89
2023-03-26T11:48:42.880Z,46.21
2023-03-26T11:51:18.292Z,47.30
2023-03-26T11:53:46.069Z,46.75
2023-03-26T11:56:40.764Z,45.11
2023-03-26T11:59:55.619Z,43.59
2023-03-26T12:02:26.360Z,40.17
2023-03-26T12:05:14.129Z,36.69
2023-03-26T12:07:55.132Z,34.03
2023-03-26T12:10:33.530Z,35.23
2023-03-26T12:13:33.788Z,37.16
2023-03-26T12:16:05.425Z,39.99
2023-03-26T12:18:33.074Z,41.60
2023-03-26T12:21:08.557Z,43.75
2023-03-26T12:23:44.092Z,45.40
2023-03-26T12:26:18.186Z,45.64
2023-03-26T12:28:48.636Z,45.76
2023-03-26T12:31:18.505Z,46.48
2023-03-26T12:34:13.097Z,46.21
2023-03-26T12:36:48.434Z,47.02
2023-03-26T12:40:10.095Z,47.90
2023-03-26T12:44:49.265Z,47.82
2023-03-26T12:45:23.194Z,44.94
2023-03-26T12:48:01.247Z,37.74
2023-03-26T12:50:42.200Z,35.75
2023-03-26T12:53:47.240Z,36.25
2023-03-26T12:56:25.269Z,37.43
2023-03-26T12:58:55.728Z,39.59
2023-03-26T13:01:37.145Z,39.74
2023-03-26T13:04:31.929Z,40.14
2023-03-26T13:07:09.291Z,40.75
2023-03-26T13:09:39.696Z,40.01
2023-03-26T13:12:17.052Z,38.09
2023-03-26T13:14:57.064Z,37.72
2023-03-26T13:17:57.229Z,38.05
2023-03-26T13:20:48.753Z,36.49
2023-03-26T13:23:51.885Z,35.51
2023-03-26T13:26:38.095Z,33.26
2023-03-26T13:29:14.687Z,30.56
2023-03-26T13:31:56.128Z,30.74
2023-03-26T13:34:41.755Z,31.89
2023-03-26T13:37:24.023Z,32.53
2023-03-26T13:40:03.426Z,33.53
2023-03-26T13:42:48.254Z,31.40
2023-03-26T13:45:37.458Z,28.39
2023-03-26T13:48:12.895Z,26.88
2023-03-26T13:50:44.280Z,27.20
2023-03-26T13:53:18.278Z,26.57
2023-03-26T13:55:55.899Z,27.44
2023-03-26T13:58:41.895Z,29.14
2023-03-26T14:01:14.639Z,30.85
2023-03-26T14:03:48.350Z,33.41
2023-03-26T14:06:22.914Z,34.97
2023-03-26T14:09:03.242Z,36.49
2023-03-26T14:11:45.809Z,37.99
2023-03-26T14:14:31.636Z,38.80
2023-03-26T14:17:15.001Z,39.64
2023-03-26T14:20:04.393Z,40.78
2023-03-26T14:22:50.176Z,42.07
2023-03-26T14:25:55.776Z,43.17
2023-03-26T14:28:50.428Z,43.87
2023-03-26T14:31:23.919Z,44.75
2023-03-26T14:34:00.258Z,45.45
2023-03-26T14:36:46.421Z,45.17
2023-03-26T14:39:51.511Z,45.52
2023-03-26T14:42:29.582Z,45.16
2023-03-26T14:45:23.495Z,45.34
2023-03-26T14:48:35.973Z,44.88
2023-03-26T14:51:21.847Z,45.27
2023-03-26T14:54:08.949Z,45.45
2023-03-26T14:57:05.210Z,45.73
2023-03-26T15:00:07.079Z,46.22
2023-03-26T15:03:05.563Z,46.48
2023-03-26T15:06:03.736Z,47.01
2023-03-26T15:08:52.803Z,47.28
2023-03-26T15:12:12.132Z,47.05
2023-03-26T15:15:01.034Z,47.17
2023-03-26T15:17:31.848Z,46.97
2023-03-26T15:20:41.757Z,47.29
2023-03-26T15:23:21.513Z,47.00
2023-03-26T15:26:23.074Z,47.24
2023-03-26T15:29:07.226Z,46.67
2023-03-26T15:31:56.767Z,46.00
2023-03-26T15:34:42.639Z,45.72
2023-03-26T15:37:19.315Z,45.36
2023-03-26T15:40:05.422Z,45.32
2023-03-26T15:42:41.729Z,45.66
2023-03-26T15:45:30.229Z,45.78
2023-03-26T15:48:17.445Z,46.10
2023-03-26T15:50:54.234Z,46.11
2023-03-26T15:53:40.668Z,44.45
2023-03-26T15:56:20.384Z,44.47
2023-03-26T15:58:58.322Z,44.96
2023-03-26T16:01:29.875Z,45.08
2023-03-26T16:04:17.240Z,45.28
2023-03-26T16:07:00.817Z,44.74
2023-03-26T16:09:41.242Z,44.49
2023-03-26T16:12:11.877Z,43.67
2023-03-26T16:14:45.284Z,43.81
2023-03-26T16:17:17.158Z,42.98
2023-03-26T16:19:50.915Z,43.67
2023-03-26T16:22:52.392Z,43.65
2023-03-26T16:25:30.672Z,42.90
2023-03-26T16:28:10.440Z,43.41
2023-03-26T16:30:38.743Z,44.34
2023-03-26T16:33:15.350Z,44.27
2023-03-26T16:35:51.924Z,44.49
2023-03-26T16:38:24.306Z,45.21
2023-03-26T16:41:03.460Z,45.53
2023-03-26T16:44:06.465Z,45.72
2023-03-26T16:47:03.603Z,46.11
2023-03-26T16:50:11.027Z,46.59
2023-03-26T16:52:58.808Z,46.65
2023-03-26T16:55:45.515Z,47.06
2023-03-26T16:58:25.712Z,47.40
2023-03-26T17:01:29.619Z,47.93
2023-03-26T17:04:03.973Z,48.31
2023-03-26T17:06:43.642Z,48.73
2023-03-26T17:09:23.916Z,49.24
2023-03-26T17:12:07.742Z,49.60
2023-03-26T17:14:44.348Z,50.14
2023-03-26T17:17:17.717Z,50.33
2023-03-26T17:20:08.931Z,50.82
2023-03-26T17:22:45.849Z,51.26
2023-03-26T17:25:27.064Z,51.51
2023-03-26T17:28:25.578Z,51.84
2023-03-26T17:31:09.906Z,52.41
2023-03-26T17:33:38.936Z,52.81
2023-03-26T17:36:12.818Z,52.62
2023-03-26T17:38:40.378Z,52.93
2023-03-26T17:41:34.013Z,52.68
2023-03-26T17:44:25.852Z,52.44
2023-03-26T17:46:57.019Z,52.38
2023-03-26T17:49:28.895Z,52.09
2023-03-26T17:52:17.393Z,52.07
2023-03-26T17:54:49.049Z,51.90
2023-03-26T17:57:25.211Z,52.15
2023-03-26T17:59:58.023Z,52.22
2023-03-26T18:02:36.034Z,52.20
2023-03-26T18:05:08.313Z,52.29
2023-03-26T18:08:13.710Z,52.48
2023-03-26T18:11:01.570Z,52.55
2023-03-26T18:14:02.244Z,52.67
2023-03-26T18:16:49.560Z,53.11
2023-03-26T18:19:19.596Z,53.39
2023-03-26T18:21:50.954Z,53.33
2023-03-26T18:24:26.604Z,53.57
2023-03-26T18:27:05.920Z,53.79
2023-03-26T18:29:35.956Z,53.85
2023-03-26T18:32:23.779Z,53.94
2023-03-26T18:34:58.971Z,54.09
2023-03-26T18:37:35.415Z,54.12
2023-03-26T18:40:09.901Z,54.28
2023-03-26T18:42:40.298Z,54.20
2023-03-26T18:45:30.811Z,54.32
2023-03-26T18:48:02.791Z,54.24
2023-03-26T18:50:35.092Z,54.20
2023-03-26T18:53:06.160Z,54.38
2023-03-26T18:55:35.244Z,54.53
2023-03-26T18:58:22.716Z,54.45
2023-03-26T19:00:56.322Z,54.51
2023-03-26T19:03:24.665Z,54.42
2023-03-26T19:05:54.262Z,54.20
2023-03-26T19:08:24.142Z,54.46
2023-03-26T19:10:54.063Z,55.00
2023-03-26T19:13:23.001Z,55.10
2023-03-26T19:15:54.321Z,55.23
2023-03-26T19:18:25.194Z,55.42
2023-03-26T19:20:59.312Z,56.05
2023-03-26T19:23:32.132Z,56.63
2023-03-26T19:26:02.350Z,56.94
2023-03-26T19:28:33.651Z,57.59
2023-03-26T19:31:22.907Z,57.70
2023-03-26T19:33:57.035Z,58.11
2023-03-26T19:36:28.222Z,58.32
2023-03-26T19:38:58.775Z,58.39
2023-03-26T19:41:39.320Z,59.11
2023-03-26T19:44:18.861Z,59.36
2023-03-26T19:46:53.712Z,59.44
2023-03-26T19:49:30.027Z,59.54
2023-03-26T19:52:12.701Z,59.93
2023-03-26T19:54:59.542Z,60.52
2023-03-26T19:57:33.015Z,61.73
2023-03-26T20:00:00.659Z,63.33
2023-03-26T20:02:28.595Z,65.70
2023-03-26T20:04:56.532Z,67.47
2023-03-26T20:07:35.006Z,68.74
2023-03-26T20:10:05.076Z,70.08
2023-03-26T20:12:33.035Z,71.11
2023-03-26T20:15:00.907Z,71.92
2023-03-26T20:17:28.570Z,73.05
2023-03-26T20:19:56.316Z,74.29
2023-03-26T20:22:23.884Z,74.99
2023-03-26T20:24:51.487Z,74.87
2023-03-26T20:27:19.023Z,76.00
2023-03-26T20:29:46.704Z,76.01
2023-03-26T20:32:24.215Z,76.12
2023-03-26T20:34:52.723Z,76.89
2023-03-26T20:37:20.339Z,77.16
2023-03-26T20:39:47.892Z,77.55
2023-03-26T20:42:16.274Z,77.60
2023-03-26T20:44:43.858Z,77.70
2023-03-26T20:47:11.568Z,77.98
2023-03-26T20:49:39.371Z,78.13
2023-03-26T20:52:07.031Z,78.92
2023-03-26T20:54:34.772Z,79.44
2023-03-26T20:57:02.593Z,79.85
2023-03-26T20:59:30.320Z,80.08
2023-03-26T21:01:58.328Z,80.84
2023-03-26T21:04:27.070Z,80.97
2023-03-26T21:07:00.616Z,80.86
2023-03-26T21:09:35.740Z,80.67
2023-03-26T21:12:06.541Z,80.79
2023-03-26T21:14:35.255Z,80.60
2023-03-26T21:17:03.266Z,80.91
2023-03-26T21:19:31.235Z,81.05
2023-03-26T21:22:11.729Z,81.42
2023-03-26T21:24:59.941Z,81.66
2023-03-26T21:27:56.890Z,81.97
2023-03-26T21:30:24.855Z,82.02
2023-03-26T21:32:53.395Z,82.33
2023-03-26T21:35:21.622Z,82.67
2023-03-26T21:37:49.743Z,82.80
2023-03-26T21:40:18.736Z,83.04
2023-03-26T21:42:51.607Z,83.09
2023-03-26T21:45:20.355Z,83.03
2023-03-26T21:47:48.989Z,83.11
2023-03-26T21:50:19.825Z,83.35
2023-03-26T21:52:48.042Z,83.13
2023-03-26T21:55:18.103Z,83.29
2023-03-26T21:58:04.096Z,83.32
2023-03-26T22:01:12.498Z,83.68
2023-03-26T22:03:55.248Z,84.23
2023-03-26T22:06:29.306Z,84.18
2023-03-26T22:08:57.141Z,84.26
2023-03-26T22:11:25.235Z,84.54
2023-03-26T22:13:52.939Z,84.62
2023-03-26T22:16:20.568Z,84.64
2023-03-26T22:18:48.140Z,84.70
2023-03-26T22:21:15.744Z,84.78
2023-03-26T22:23:43.331Z,84.75
2023-03-26T22:26:10.886Z,84.76
2023-03-26T22:28:38.571Z,84.75
2023-03-26T22:31:09.690Z,84.78
2023-03-26T22:33:38.888Z,84.71
2023-03-26T22:36:22.598Z,84.69
2023-03-26T22:38:53.085Z,84.59
2023-03-26T22:41:21.841Z,84.71
2023-03-26T22:43:49.604Z,84.59
2023-03-26T22:46:17.517Z,84.61
2023-03-26T22:48:45.239Z,84.64
2023-03-26T22:51:12.895Z,84.87
2023-03-26T22:53:40.733Z,84.99
2023-03-26T22:56:08.825Z,85.27
2023-03-26T22:58:36.668Z,85.05
2023-03-26T23:01:08.096Z,85.13
2023-03-26T23:03:36.593Z,85.09
2023-03-26T23:06:07.662Z,85.09
2023-03-26T23:08:36.006Z,85.18
2023-03-26T23:11:15.149Z,85.19
2023-03-26T23:13:44.489Z,85.24
2023-03-26T23:16:13.070Z,85.22
2023-03-26T23:18:41.092Z,85.32
2023-03-26T23:21:17.348Z,85.32
2023-03-26T23:23:45.104Z,85.47
2023-03-26T23:26:12.881Z,85.57
2023-03-26T23:28:40.790Z,85.67
2023-03-26T23:31:10.022Z,85.78
2023-03-26T23:33:38.930Z,85.94
2023-03-26T23:36:08.178Z,85.90
2023-03-26T23:38:43.764Z,85.94
2023-03-26T23:41:13.767Z,86.07
2023-03-26T23:43:54.635Z,86.08
2023-03-26T23:46:27.735Z,86.08
2023-03-26T23:48:55.465Z,86.07
2023-03-26T23:51:23.087Z,86.16
2023-03-26T23:53:50.656Z,86.25
2023-03-26T23:56:18.284Z,86.47
2023-03-26T23:58:45.869Z,86.50
